sensor_id;sensor_type;location;lat;lon;timestamp;P1;durP1;ratioP1;P2;durP2;ratioP2
25175;SDS011;13135;55.166;61.286;2023-05-16T00:01:35;20.97;;;14.57;;
25175;SDS011;13135;55.166;61.286;2023-05-16T00:04:20;22.93;;;16.37;;
25175;SDS011;13135;55.166;61.286;2023-05-16T00:07:05;23.97;;;15.70;;
25175;SDS011;13135;55.166;61.286;2023-05-16T00:09:50;19.07;;;13.60;;
25175;SDS011;13135;55.166;61.286;2023-05-16T00:12:34;19.07;;;12.73;;
25175;SDS011;13135;55.166;61.286;2023-05-16T00:15:18;19.33;;;14.20;;
25175;SDS011;13135;55.166;61.286;2023-05-16T00:18:05;20.10;;;13.80;;
25175;SDS011;13135;55.166;61.286;2023-05-16T00:20:50;18.10;;;12.60;;
25175;SDS011;13135;55.166;61.286;2023-05-16T00:23:36;19.20;;;13.90;;
25175;SDS011;13135;55.166;61.286;2023-05-16T00:26:23;20.33;;;13.40;;
25175;SDS011;13135;55.166;61.286;2023-05-16T00:29:07;18.80;;;13.40;;
25175;SDS011;13135;55.166;61.286;2023-05-16T00:31:51;19.07;;;13.20;;
25175;SDS011;13135;55.166;61.286;2023-05-16T00:34:36;18.20;;;12.20;;
25175;SDS011;13135;55.166;61.286;2023-05-16T00:37:21;17.17;;;11.40;;
25175;SDS011;13135;55.166;61.286;2023-05-16T00:40:05;15.77;;;10.87;;
25175;SDS011;13135;55.166;61.286;2023-05-16T00:42:48;14.50;;;10.63;;
25175;SDS011;13135;55.166;61.286;2023-05-16T00:45:33;14.70;;;9.97;;
25175;SDS011;13135;55.166;61.286;2023-05-16T00:48:20;14.63;;;10.83;;
25175;SDS011;13135;55.166;61.286;2023-05-16T00:51:05;12.23;;;9.27;;
25175;SDS011;13135;55.166;61.286;2023-05-16T00:53:50;15.67;;;10.53;;
25175;SDS011;13135;55.166;61.286;2023-05-16T00:56:34;13.47;;;10.10;;
25175;SDS011;13135;55.166;61.286;2023-05-16T00:59:19;15.33;;;9.70;;
25175;SDS011;13135;55.166;61.286;2023-05-16T01:02:03;14.03;;;8.87;;
25175;SDS011;13135;55.166;61.286;2023-05-16T01:04:47;15.07;;;9.00;;
25175;SDS011;13135;55.166;61.286;2023-05-16T01:07:31;11.73;;;8.83;;
25175;SDS011;13135;55.166;61.286;2023-05-16T01:10:15;12.57;;;9.00;;
25175;SDS011;13135;55.166;61.286;2023-05-16T01:13:17;10.93;;;7.87;;
25175;SDS011;13135;55.166;61.286;2023-05-16T01:16:04;11.40;;;8.60;;
25175;SDS011;13135;55.166;61.286;2023-05-16T01:18:54;12.97;;;8.20;;
25175;SDS011;13135;55.166;61.286;2023-05-16T01:21:39;13.67;;;8.97;;
25175;SDS011;13135;55.166;61.286;2023-05-16T01:24:22;11.83;;;8.00;;
25175;SDS011;13135;55.166;61.286;2023-05-16T01:27:05;11.23;;;8.73;;
25175;SDS011;13135;55.166;61.286;2023-05-16T01:29:47;15.40;;;9.00;;
25175;SDS011;13135;55.166;61.286;2023-05-16T01:32:31;12.03;;;7.93;;
25175;SDS011;13135;55.166;61.286;2023-05-16T01:35:16;11.53;;;8.10;;
25175;SDS011;13135;55.166;61.286;2023-05-16T01:38:09;13.77;;;8.60;;
25175;SDS011;13135;55.166;61.286;2023-05-16T01:40:56;14.40;;;8.63;;
25175;SDS011;13135;55.166;61.286;2023-05-16T01:43:45;12.40;;;9.07;;
25175;SDS011;13135;55.166;61.286;2023-05-16T01:46:28;12.37;;;8.73;;
25175;SDS011;13135;55.166;61.286;2023-05-16T01:49:15;10.40;;;8.10;;
25175;SDS011;13135;55.166;61.286;2023-05-16T01:52:00;16.13;;;8.43;;
25175;SDS011;13135;55.166;61.286;2023-05-16T01:54:44;13.63;;;9.37;;
25175;SDS011;13135;55.166;61.286;2023-05-16T01:57:27;10.73;;;8.43;;
25175;SDS011;13135;55.166;61.286;2023-05-16T02:00:12;11.70;;;8.67;;
25175;SDS011;13135;55.166;61.286;2023-05-16T02:02:58;12.33;;;9.17;;
25175;SDS011;13135;55.166;61.286;2023-05-16T02:05:45;12.43;;;8.70;;
25175;SDS011;13135;55.166;61.286;2023-05-16T02:08:34;14.07;;;9.20;;
25175;SDS011;13135;55.166;61.286;2023-05-16T02:11:18;14.70;;;9.70;;
25175;SDS011;13135;55.166;61.286;2023-05-16T02:14:02;16.23;;;9.40;;
25175;SDS011;13135;55.166;61.286;2023-05-16T02:16:47;13.10;;;8.87;;
25175;SDS011;13135;55.166;61.286;2023-05-16T02:19:34;14.23;;;8.83;;
25175;SDS011;13135;55.166;61.286;2023-05-16T02:22:19;13.40;;;8.87;;
25175;SDS011;13135;55.166;61.286;2023-05-16T02:25:01;12.57;;;8.60;;
25175;SDS011;13135;55.166;61.286;2023-05-16T02:27:46;12.50;;;8.73;;
25175;SDS011;13135;55.166;61.286;2023-05-16T02:30:30;11.57;;;8.50;;
25175;SDS011;13135;55.166;61.286;2023-05-16T02:33:14;13.10;;;9.43;;
25175;SDS011;13135;55.166;61.286;2023-05-16T02:35:59;13.53;;;8.67;;
25175;SDS011;13135;55.166;61.286;2023-05-16T02:38:43;12.50;;;8.80;;
25175;SDS011;13135;55.166;61.286;2023-05-16T02:41:30;12.80;;;8.93;;
25175;SDS011;13135;55.166;61.286;2023-05-16T02:44:15;13.77;;;9.73;;
25175;SDS011;13135;55.166;61.286;2023-05-16T02:47:00;17.30;;;10.17;;
25175;SDS011;13135;55.166;61.286;2023-05-16T02:49:45;13.10;;;9.23;;
25175;SDS011;13135;55.166;61.286;2023-05-16T02:52:31;14.83;;;10.60;;
25175;SDS011;13135;55.166;61.286;2023-05-16T02:55:17;17.60;;;9.77;;
25175;SDS011;13135;55.166;61.286;2023-05-16T02:58:01;16.07;;;11.20;;
25175;SDS011;13135;55.166;61.286;2023-05-16T03:00:46;15.47;;;10.93;;
25175;SDS011;13135;55.166;61.286;2023-05-16T03:03:30;20.97;;;12.60;;
25175;SDS011;13135;55.166;61.286;2023-05-16T03:06:15;18.97;;;11.67;;
25175;SDS011;13135;55.166;61.286;2023-05-16T03:09:02;18.60;;;11.47;;
25175;SDS011;13135;55.166;61.286;2023-05-16T03:11:46;20.07;;;13.33;;
25175;SDS011;13135;55.166;61.286;2023-05-16T03:14:30;19.90;;;12.13;;
25175;SDS011;13135;55.166;61.286;2023-05-16T03:17:15;17.40;;;12.97;;
25175;SDS011;13135;55.166;61.286;2023-05-16T03:20:00;19.60;;;13.13;;
25175;SDS011;13135;55.166;61.286;2023-05-16T03:22:45;20.73;;;14.10;;
25175;SDS011;13135;55.166;61.286;2023-05-16T03:25:30;20.97;;;14.47;;
25175;SDS011;13135;55.166;61.286;2023-05-16T03:31:32;21.03;;;15.57;;
25175;SDS011;13135;55.166;61.286;2023-05-16T03:34:17;23.73;;;15.23;;
25175;SDS011;13135;55.166;61.286;2023-05-16T03:37:01;20.13;;;13.37;;
25175;SDS011;13135;55.166;61.286;2023-05-16T03:39:44;20.73;;;13.40;;
25175;SDS011;13135;55.166;61.286;2023-05-16T03:42:29;18.30;;;13.40;;
25175;SDS011;13135;55.166;61.286;2023-05-16T03:45:16;19.13;;;13.83;;
25175;SDS011;13135;55.166;61.286;2023-05-16T03:48:01;18.43;;;11.07;;
25175;SDS011;13135;55.166;61.286;2023-05-16T03:50:46;14.63;;;9.73;;
25175;SDS011;13135;55.166;61.286;2023-05-16T03:53:30;14.70;;;9.00;;
25175;SDS011;13135;55.166;61.286;2023-05-16T03:56:14;10.73;;;8.00;;
25175;SDS011;13135;55.166;61.286;2023-05-16T03:58:58;12.10;;;8.13;;
25175;SDS011;13135;55.166;61.286;2023-05-16T04:01:43;12.87;;;8.37;;
25175;SDS011;13135;55.166;61.286;2023-05-16T04:04:30;10.63;;;7.47;;
25175;SDS011;13135;55.166;61.286;2023-05-16T04:07:15;12.90;;;7.43;;
25175;SDS011;13135;55.166;61.286;2023-05-16T04:10:00;12.40;;;7.30;;
25175;SDS011;13135;55.166;61.286;2023-05-16T04:12:44;8.93;;;6.73;;
25175;SDS011;13135;55.166;61.286;2023-05-16T04:15:29;11.13;;;6.73;;
25175;SDS011;13135;55.166;61.286;2023-05-16T04:18:14;11.10;;;6.97;;
25175;SDS011;13135;55.166;61.286;2023-05-16T04:20:59;9.47;;;6.43;;
25175;SDS011;13135;55.166;61.286;2023-05-16T04:23:44;7.93;;;6.20;;
25175;SDS011;13135;55.166;61.286;2023-05-16T04:26:30;8.33;;;5.63;;
25175;SDS011;13135;55.166;61.286;2023-05-16T04:29:14;9.70;;;5.73;;
25175;SDS011;13135;55.166;61.286;2023-05-16T04:32:00;13.43;;;5.83;;
25175;SDS011;13135;55.166;61.286;2023-05-16T04:34:45;8.30;;;5.20;;
25175;SDS011;13135;55.166;61.286;2023-05-16T04:37:30;9.37;;;5.20;;
25175;SDS011;13135;55.166;61.286;2023-05-16T04:40:14;8.47;;;5.43;;
25175;SDS011;13135;55.166;61.286;2023-05-16T04:42:59;6.30;;;4.57;;
25175;SDS011;13135;55.166;61.286;2023-05-16T04:45:46;6.70;;;4.37;;
25175;SDS011;13135;55.166;61.286;2023-05-16T04:48:31;8.47;;;4.80;;
25175;SDS011;13135;55.166;61.286;2023-05-16T04:51:14;7.57;;;4.27;;
25175;SDS011;13135;55.166;61.286;2023-05-16T04:54:04;6.97;;;4.60;;
25175;SDS011;13135;55.166;61.286;2023-05-16T04:56:49;5.63;;;4.23;;
25175;SDS011;13135;55.166;61.286;2023-05-16T04:59:33;12.87;;;5.10;;
25175;SDS011;13135;55.166;61.286;2023-05-16T05:02:18;6.63;;;4.13;;
25175;SDS011;13135;55.166;61.286;2023-05-16T05:05:02;5.30;;;4.00;;
25175;SDS011;13135;55.166;61.286;2023-05-16T05:07:49;4.07;;;3.37;;
25175;SDS011;13135;55.166;61.286;2023-05-16T05:10:34;5.67;;;2.97;;
25175;SDS011;13135;55.166;61.286;2023-05-16T05:13:21;5.03;;;2.77;;
25175;SDS011;13135;55.166;61.286;2023-05-16T05:16:06;6.17;;;3.27;;
25175;SDS011;13135;55.166;61.286;2023-05-16T05:18:51;5.93;;;3.60;;
25175;SDS011;13135;55.166;61.286;2023-05-16T05:21:35;3.47;;;2.80;;
25175;SDS011;13135;55.166;61.286;2023-05-16T05:24:30;6.50;;;2.93;;
25175;SDS011;13135;55.166;61.286;2023-05-16T05:27:14;4.43;;;2.67;;
25175;SDS011;13135;55.166;61.286;2023-05-16T05:29:59;4.10;;;2.60;;
25175;SDS011;13135;55.166;61.286;2023-05-16T05:32:44;4.27;;;3.07;;
25175;SDS011;13135;55.166;61.286;2023-05-16T05:35:29;4.20;;;2.47;;
25175;SDS011;13135;55.166;61.286;2023-05-16T05:38:16;8.33;;;2.77;;
25175;SDS011;13135;55.166;61.286;2023-05-16T05:41:00;3.03;;;2.20;;
25175;SDS011;13135;55.166;61.286;2023-05-16T05:43:40;3.20;;;2.40;;
25175;SDS011;13135;55.166;61.286;2023-05-16T05:46:25;3.07;;;2.33;;
25175;SDS011;13135;55.166;61.286;2023-05-16T05:52:18;3.33;;;2.30;;
25175;SDS011;13135;55.166;61.286;2023-05-16T05:55:02;2.53;;;1.80;;
25175;SDS011;13135;55.166;61.286;2023-05-16T05:57:47;2.00;;;1.60;;
25175;SDS011;13135;55.166;61.286;2023-05-16T06:00:34;2.73;;;1.60;;
25175;SDS011;13135;55.166;61.286;2023-05-16T06:03:19;1.90;;;1.40;;
25175;SDS011;13135;55.166;61.286;2023-05-16T06:06:03;3.07;;;1.90;;
25175;SDS011;13135;55.166;61.286;2023-05-16T06:08:50;2.83;;;1.80;;
25175;SDS011;13135;55.166;61.286;2023-05-16T06:11:35;4.93;;;2.20;;
25175;SDS011;13135;55.166;61.286;2023-05-16T06:14:19;2.03;;;1.50;;
25175;SDS011;13135;55.166;61.286;2023-05-16T06:17:03;2.43;;;1.83;;
25175;SDS011;13135;55.166;61.286;2023-05-16T06:19:49;2.73;;;2.10;;
25175;SDS011;13135;55.166;61.286;2023-05-16T06:22:33;3.57;;;2.13;;
25175;SDS011;13135;55.166;61.286;2023-05-16T06:25:17;5.07;;;2.30;;
25175;SDS011;13135;55.166;61.286;2023-05-16T06:27:59;5.23;;;2.47;;
25175;SDS011;13135;55.166;61.286;2023-05-16T06:30:44;3.10;;;2.03;;
25175;SDS011;13135;55.166;61.286;2023-05-16T06:33:29;6.40;;;2.50;;
25175;SDS011;13135;55.166;61.286;2023-05-16T06:36:14;2.35;;;2.15;;
25175;SDS011;13135;55.166;61.286;2023-05-16T06:38:59;2.95;;;2.20;;
25175;SDS011;13135;55.166;61.286;2023-05-16T06:41:44;2.23;;;1.57;;
25175;SDS011;13135;55.166;61.286;2023-05-16T06:44:28;1.73;;;1.60;;
25175;SDS011;13135;55.166;61.286;2023-05-16T06:47:12;2.80;;;1.60;;
25175;SDS011;13135;55.166;61.286;2023-05-16T06:49:58;3.90;;;1.90;;
25175;SDS011;13135;55.166;61.286;2023-05-16T06:52:42;4.22;;;1.85;;
25175;SDS011;13135;55.166;61.286;2023-05-16T06:55:27;1.83;;;1.60;;
25175;SDS011;13135;55.166;61.286;2023-05-16T06:58:10;3.12;;;2.20;;
25175;SDS011;13135;55.166;61.286;2023-05-16T07:00:55;4.12;;;1.92;;
25175;SDS011;13135;55.166;61.286;2023-05-16T07:03:40;2.85;;;1.98;;
25175;SDS011;13135;55.166;61.286;2023-05-16T07:06:25;3.43;;;2.10;;
25175;SDS011;13135;55.166;61.286;2023-05-16T07:09:09;3.85;;;1.73;;
25175;SDS011;13135;55.166;61.286;2023-05-16T07:11:51;3.77;;;1.80;;
25175;SDS011;13135;55.166;61.286;2023-05-16T07:14:38;3.47;;;2.00;;
25175;SDS011;13135;55.166;61.286;2023-05-16T07:17:22;3.73;;;1.80;;
25175;SDS011;13135;55.166;61.286;2023-05-16T07:20:07;4.60;;;1.70;;
25175;SDS011;13135;55.166;61.286;2023-05-16T07:22:52;2.30;;;1.58;;
25175;SDS011;13135;55.166;61.286;2023-05-16T07:28:50;2.97;;;1.70;;
25175;SDS011;13135;55.166;61.286;2023-05-16T07:31:35;6.05;;;1.95;;
25175;SDS011;13135;55.166;61.286;2023-05-16T07:34:20;8.32;;;2.20;;
25175;SDS011;13135;55.166;61.286;2023-05-16T07:37:04;4.35;;;1.73;;
25175;SDS011;13135;55.166;61.286;2023-05-16T07:39:49;4.10;;;1.50;;
25175;SDS011;13135;55.166;61.286;2023-05-16T07:42:34;1.87;;;1.40;;
25175;SDS011;13135;55.166;61.286;2023-05-16T07:45:19;2.15;;;1.48;;
25175;SDS011;13135;55.166;61.286;2023-05-16T07:48:02;2.33;;;1.55;;
25175;SDS011;13135;55.166;61.286;2023-05-16T07:53:47;2.80;;;1.60;;
25175;SDS011;13135;55.166;61.286;2023-05-16T07:56:34;1.75;;;1.12;;
25175;SDS011;13135;55.166;61.286;2023-05-16T07:59:16;1.50;;;1.30;;
25175;SDS011;13135;55.166;61.286;2023-05-16T08:02:01;2.80;;;1.50;;
25175;SDS011;13135;55.166;61.286;2023-05-16T08:04:48;2.58;;;1.70;;
25175;SDS011;13135;55.166;61.286;2023-05-16T08:07:33;1.60;;;1.42;;
25175;SDS011;13135;55.166;61.286;2023-05-16T08:10:19;2.97;;;1.42;;
25175;SDS011;13135;55.166;61.286;2023-05-16T08:13:04;3.40;;;1.58;;
25175;SDS011;13135;55.166;61.286;2023-05-16T08:15:47;4.45;;;1.80;;
25175;SDS011;13135;55.166;61.286;2023-05-16T08:18:32;3.10;;;1.37;;
25175;SDS011;13135;55.166;61.286;2023-05-16T08:21:16;3.10;;;1.45;;
25175;SDS011;13135;55.166;61.286;2023-05-16T08:24:04;11.38;;;2.60;;
25175;SDS011;13135;55.166;61.286;2023-05-16T08:26:51;5.30;;;1.50;;
25175;SDS011;13135;55.166;61.286;2023-05-16T08:29:36;3.95;;;1.73;;
25175;SDS011;13135;55.166;61.286;2023-05-16T08:32:21;2.40;;;1.45;;
25175;SDS011;13135;55.166;61.286;2023-05-16T08:35:06;2.00;;;1.50;;
25175;SDS011;13135;55.166;61.286;2023-05-16T08:37:53;2.72;;;1.48;;
25175;SDS011;13135;55.166;61.286;2023-05-16T08:40:38;1.85;;;1.52;;
25175;SDS011;13135;55.166;61.286;2023-05-16T08:43:23;1.90;;;1.30;;
25175;SDS011;13135;55.166;61.286;2023-05-16T08:46:07;2.37;;;1.60;;
25175;SDS011;13135;55.166;61.286;2023-05-16T08:48:57;2.40;;;1.45;;
25175;SDS011;13135;55.166;61.286;2023-05-16T08:51:38;2.20;;;1.60;;
25175;SDS011;13135;55.166;61.286;2023-05-16T08:54:23;1.87;;;1.42;;
25175;SDS011;13135;55.166;61.286;2023-05-16T08:57:08;2.72;;;1.67;;
25175;SDS011;13135;55.166;61.286;2023-05-16T08:59:52;3.20;;;1.65;;
25175;SDS011;13135;55.166;61.286;2023-05-16T09:02:38;2.20;;;1.40;;
25175;SDS011;13135;55.166;61.286;2023-05-16T09:05:21;3.17;;;1.50;;
25175;SDS011;13135;55.166;61.286;2023-05-16T09:08:07;2.95;;;1.65;;
25175;SDS011;13135;55.166;61.286;2023-05-16T09:10:52;3.08;;;1.40;;
25175;SDS011;13135;55.166;61.286;2023-05-16T09:13:37;4.53;;;1.70;;
25175;SDS011;13135;55.166;61.286;2023-05-16T09:16:18;4.15;;;1.65;;
25175;SDS011;13135;55.166;61.286;2023-05-16T09:19:03;3.25;;;1.62;;
25175;SDS011;13135;55.166;61.286;2023-05-16T09:21:48;2.55;;;1.45;;
25175;SDS011;13135;55.166;61.286;2023-05-16T09:24:36;2.47;;;1.60;;
25175;SDS011;13135;55.166;61.286;2023-05-16T09:27:29;2.80;;;1.70;;
25175;SDS011;13135;55.166;61.286;2023-05-16T09:30:14;3.15;;;1.60;;
25175;SDS011;13135;55.166;61.286;2023-05-16T09:32:59;3.28;;;2.12;;
25175;SDS011;13135;55.166;61.286;2023-05-16T09:35:43;1.70;;;1.42;;
25175;SDS011;13135;55.166;61.286;2023-05-16T09:38:28;3.40;;;1.50;;
25175;SDS011;13135;55.166;61.286;2023-05-16T09:41:14;4.53;;;1.40;;
25175;SDS011;13135;55.166;61.286;2023-05-16T09:43:59;2.85;;;1.80;;
25175;SDS011;13135;55.166;61.286;2023-05-16T09:46:45;2.87;;;1.62;;
25175;SDS011;13135;55.166;61.286;2023-05-16T09:49:31;4.60;;;1.55;;
25175;SDS011;13135;55.166;61.286;2023-05-16T09:52:15;6.10;;;1.50;;
25175;SDS011;13135;55.166;61.286;2023-05-16T09:54:59;1.90;;;1.40;;
25175;SDS011;13135;55.166;61.286;2023-05-16T09:57:44;2.08;;;1.35;;
25175;SDS011;13135;55.166;61.286;2023-05-16T10:00:30;5.65;;;1.87;;
25175;SDS011;13135;55.166;61.286;2023-05-16T10:03:16;2.87;;;1.40;;
25175;SDS011;13135;55.166;61.286;2023-05-16T10:06:02;2.37;;;1.40;;
25175;SDS011;13135;55.166;61.286;2023-05-16T10:08:46;5.95;;;1.62;;
25175;SDS011;13135;55.166;61.286;2023-05-16T10:11:31;2.83;;;1.35;;
25175;SDS011;13135;55.166;61.286;2023-05-16T10:14:18;6.15;;;1.40;;
25175;SDS011;13135;55.166;61.286;2023-05-16T10:17:03;3.65;;;1.73;;
25175;SDS011;13135;55.166;61.286;2023-05-16T10:19:47;4.82;;;1.98;;
25175;SDS011;13135;55.166;61.286;2023-05-16T10:22:33;6.53;;;2.03;;
25175;SDS011;13135;55.166;61.286;2023-05-16T10:25:27;2.12;;;1.55;;
25175;SDS011;13135;55.166;61.286;2023-05-16T10:28:13;3.05;;;1.67;;
25175;SDS011;13135;55.166;61.286;2023-05-16T10:30:57;2.92;;;1.58;;
25175;SDS011;13135;55.166;61.286;2023-05-16T10:33:42;3.58;;;1.83;;
25175;SDS011;13135;55.166;61.286;2023-05-16T10:36:27;2.15;;;1.42;;
25175;SDS011;13135;55.166;61.286;2023-05-16T10:39:13;3.10;;;1.52;;
25175;SDS011;13135;55.166;61.286;2023-05-16T10:41:58;3.20;;;1.77;;
25175;SDS011;13135;55.166;61.286;2023-05-16T10:44:43;2.92;;;1.52;;
25175;SDS011;13135;55.166;61.286;2023-05-16T10:47:27;4.47;;;1.80;;
25175;SDS011;13135;55.166;61.286;2023-05-16T10:50:12;2.75;;;1.70;;
25175;SDS011;13135;55.166;61.286;2023-05-16T10:53:07;3.55;;;1.85;;
25175;SDS011;13135;55.166;61.286;2023-05-16T10:55:39;2.35;;;1.70;;
25175;SDS011;13135;55.166;61.286;2023-05-16T10:58:39;2.90;;;1.65;;
25175;SDS011;13135;55.166;61.286;2023-05-16T11:01:33;3.87;;;2.05;;
25175;SDS011;13135;55.166;61.286;2023-05-16T11:04:17;2.50;;;1.67;;
25175;SDS011;13135;55.166;61.286;2023-05-16T11:07:02;3.50;;;1.87;;
25175;SDS011;13135;55.166;61.286;2023-05-16T11:09:52;6.47;;;2.10;;
25175;SDS011;13135;55.166;61.286;2023-05-16T11:12:48;3.58;;;1.92;;
25175;SDS011;13135;55.166;61.286;2023-05-16T11:15:33;3.05;;;1.70;;
25175;SDS011;13135;55.166;61.286;2023-05-16T11:18:17;2.58;;;2.03;;
25175;SDS011;13135;55.166;61.286;2023-05-16T11:21:04;3.33;;;1.70;;
25175;SDS011;13135;55.166;61.286;2023-05-16T11:34:19;2.75;;;1.80;;
25175;SDS011;13135;55.166;61.286;2023-05-16T11:37:04;3.85;;;2.08;;
25175;SDS011;13135;55.166;61.286;2023-05-16T11:39:50;3.35;;;2.17;;
25175;SDS011;13135;55.166;61.286;2023-05-16T11:42:40;5.65;;;2.00;;
25175;SDS011;13135;55.166;61.286;2023-05-16T11:45:23;2.67;;;2.12;;
25175;SDS011;13135;55.166;61.286;2023-05-16T11:48:08;6.12;;;2.62;;
25175;SDS011;13135;55.166;61.286;2023-05-16T11:50:53;3.50;;;2.12;;
25175;SDS011;13135;55.166;61.286;2023-05-16T11:53:37;7.07;;;2.10;;
25175;SDS011;13135;55.166;61.286;2023-05-16T11:56:29;3.25;;;2.05;;
25175;SDS011;13135;55.166;61.286;2023-05-16T11:59:14;2.47;;;2.12;;
25175;SDS011;13135;55.166;61.286;2023-05-16T12:01:58;3.25;;;2.15;;
25175;SDS011;13135;55.166;61.286;2023-05-16T12:04:45;4.00;;;2.10;;
25175;SDS011;13135;55.166;61.286;2023-05-16T12:07:27;5.22;;;2.62;;
25175;SDS011;13135;55.166;61.286;2023-05-16T12:10:12;7.30;;;3.20;;
25175;SDS011;13135;55.166;61.286;2023-05-16T12:12:58;4.93;;;3.25;;
25175;SDS011;13135;55.166;61.286;2023-05-16T12:15:43;5.20;;;3.40;;
25175;SDS011;13135;55.166;61.286;2023-05-16T12:18:30;4.82;;;3.83;;
25175;SDS011;13135;55.166;61.286;2023-05-16T12:21:14;9.02;;;4.18;;
25175;SDS011;13135;55.166;61.286;2023-05-16T12:23:59;8.77;;;4.43;;
25175;SDS011;13135;55.166;61.286;2023-05-16T12:26:42;5.22;;;3.95;;
25175;SDS011;13135;55.166;61.286;2023-05-16T12:29:27;7.85;;;4.97;;
25175;SDS011;13135;55.166;61.286;2023-05-16T12:32:13;9.25;;;5.12;;
25175;SDS011;13135;55.166;61.286;2023-05-16T12:35:00;7.82;;;5.35;;
25175;SDS011;13135;55.166;61.286;2023-05-16T12:37:42;10.50;;;6.05;;
25175;SDS011;13135;55.166;61.286;2023-05-16T12:40:29;9.82;;;6.97;;
25175;SDS011;13135;55.166;61.286;2023-05-16T12:43:19;7.60;;;5.43;;
25175;SDS011;13135;55.166;61.286;2023-05-16T12:46:08;13.27;;;6.05;;
25175;SDS011;13135;55.166;61.286;2023-05-16T12:48:59;9.57;;;5.87;;
25175;SDS011;13135;55.166;61.286;2023-05-16T12:51:37;11.15;;;6.80;;
25175;SDS011;13135;55.166;61.286;2023-05-16T12:54:21;10.07;;;6.62;;
25175;SDS011;13135;55.166;61.286;2023-05-16T12:57:06;10.55;;;7.93;;
25175;SDS011;13135;55.166;61.286;2023-05-16T12:59:47;12.70;;;8.13;;
25175;SDS011;13135;55.166;61.286;2023-05-16T13:02:31;9.82;;;7.60;;
25175;SDS011;13135;55.166;61.286;2023-05-16T13:05:16;15.05;;;9.20;;
25175;SDS011;13135;55.166;61.286;2023-05-16T13:08:01;12.57;;;8.70;;
25175;SDS011;13135;55.166;61.286;2023-05-16T13:10:44;12.85;;;8.48;;
25175;SDS011;13135;55.166;61.286;2023-05-16T13:13:28;10.85;;;8.60;;
25175;SDS011;13135;55.166;61.286;2023-05-16T13:16:13;12.27;;;7.62;;
25175;SDS011;13135;55.166;61.286;2023-05-16T13:18:58;12.88;;;8.15;;
25175;SDS011;13135;55.166;61.286;2023-05-16T13:21:43;10.18;;;8.27;;
25175;SDS011;13135;55.166;61.286;2023-05-16T13:24:27;11.48;;;8.25;;
25175;SDS011;13135;55.166;61.286;2023-05-16T13:27:15;11.70;;;8.43;;
25175;SDS011;13135;55.166;61.286;2023-05-16T13:30:00;10.90;;;9.18;;
25175;SDS011;13135;55.166;61.286;2023-05-16T13:32:45;11.32;;;8.50;;
25175;SDS011;13135;55.166;61.286;2023-05-16T13:35:30;13.75;;;9.63;;
25175;SDS011;13135;55.166;61.286;2023-05-16T13:38:16;10.40;;;8.32;;
25175;SDS011;13135;55.166;61.286;2023-05-16T13:41:01;12.10;;;9.43;;
25175;SDS011;13135;55.166;61.286;2023-05-16T13:43:46;15.57;;;9.18;;
25175;SDS011;13135;55.166;61.286;2023-05-16T13:46:32;15.82;;;9.52;;
25175;SDS011;13135;55.166;61.286;2023-05-16T13:49:17;13.55;;;9.23;;
25175;SDS011;13135;55.166;61.286;2023-05-16T13:52:02;13.23;;;9.05;;
25175;SDS011;13135;55.166;61.286;2023-05-16T13:54:46;26.05;;;19.52;;
25175;SDS011;13135;55.166;61.286;2023-05-16T13:57:30;14.30;;;8.10;;
25175;SDS011;13135;55.166;61.286;2023-05-16T14:00:18;10.73;;;8.05;;
25175;SDS011;13135;55.166;61.286;2023-05-16T14:03:03;9.55;;;7.85;;
25175;SDS011;13135;55.166;61.286;2023-05-16T14:05:50;10.93;;;7.75;;
25175;SDS011;13135;55.166;61.286;2023-05-16T14:08:34;11.05;;;7.70;;
25175;SDS011;13135;55.166;61.286;2023-05-16T14:14:18;9.75;;;6.97;;
25175;SDS011;13135;55.166;61.286;2023-05-16T14:17:02;10.70;;;6.80;;
25175;SDS011;13135;55.166;61.286;2023-05-16T14:19:47;12.65;;;7.00;;
25175;SDS011;13135;55.166;61.286;2023-05-16T14:22:34;15.43;;;7.57;;
25175;SDS011;13135;55.166;61.286;2023-05-16T14:25:20;12.90;;;7.20;;
25175;SDS011;13135;55.166;61.286;2023-05-16T14:28:07;19.27;;;11.85;;
25175;SDS011;13135;55.166;61.286;2023-05-16T14:30:52;16.60;;;12.05;;
25175;SDS011;13135;55.166;61.286;2023-05-16T14:33:39;21.33;;;9.52;;
25175;SDS011;13135;55.166;61.286;2023-05-16T14:36:26;12.15;;;7.68;;
25175;SDS011;13135;55.166;61.286;2023-05-16T14:39:11;13.45;;;8.13;;
25175;SDS011;13135;55.166;61.286;2023-05-16T14:41:56;14.98;;;8.77;;
25175;SDS011;13135;55.166;61.286;2023-05-16T14:44:43;12.10;;;7.97;;
25175;SDS011;13135;55.166;61.286;2023-05-16T14:47:28;15.65;;;8.00;;
25175;SDS011;13135;55.166;61.286;2023-05-16T14:50:12;13.23;;;8.32;;
25175;SDS011;13135;55.166;61.286;2023-05-16T14:52:57;11.43;;;9.05;;
25175;SDS011;13135;55.166;61.286;2023-05-16T14:55:41;19.20;;;10.50;;
25175;SDS011;13135;55.166;61.286;2023-05-16T14:58:25;17.77;;;10.50;;
25175;SDS011;13135;55.166;61.286;2023-05-16T15:01:10;17.48;;;10.13;;
25175;SDS011;13135;55.166;61.286;2023-05-16T15:03:54;24.70;;;11.32;;
25175;SDS011;13135;55.166;61.286;2023-05-16T15:06:41;22.60;;;13.05;;
25175;SDS011;13135;55.166;61.286;2023-05-16T15:09:27;21.67;;;13.55;;
25175;SDS011;13135;55.166;61.286;2023-05-16T15:12:12;29.02;;;13.25;;
25175;SDS011;13135;55.166;61.286;2023-05-16T15:14:59;29.83;;;13.77;;
25175;SDS011;13135;55.166;61.286;2023-05-16T15:17:44;22.48;;;13.82;;
25175;SDS011;13135;55.166;61.286;2023-05-16T15:20:28;25.15;;;14.77;;
25175;SDS011;13135;55.166;61.286;2023-05-16T15:23:13;21.80;;;14.43;;
25175;SDS011;13135;55.166;61.286;2023-05-16T15:25:57;25.30;;;15.25;;
25175;SDS011;13135;55.166;61.286;2023-05-16T15:28:43;30.20;;;16.45;;
25175;SDS011;13135;55.166;61.286;2023-05-16T15:31:29;43.70;;;25.23;;
25175;SDS011;13135;55.166;61.286;2023-05-16T15:34:14;36.88;;;22.60;;
25175;SDS011;13135;55.166;61.286;2023-05-16T15:37:00;29.45;;;17.80;;
25175;SDS011;13135;55.166;61.286;2023-05-16T15:39:45;34.33;;;17.73;;
25175;SDS011;13135;55.166;61.286;2023-05-16T15:42:30;30.37;;;16.83;;
25175;SDS011;13135;55.166;61.286;2023-05-16T15:45:12;30.33;;;19.10;;
25175;SDS011;13135;55.166;61.286;2023-05-16T15:47:56;38.78;;;20.55;;
25175;SDS011;13135;55.166;61.286;2023-05-16T15:50:40;31.50;;;19.67;;
25175;SDS011;13135;55.166;61.286;2023-05-16T15:53:22;32.95;;;19.70;;
25175;SDS011;13135;55.166;61.286;2023-05-16T15:56:07;31.83;;;18.83;;
25175;SDS011;13135;55.166;61.286;2023-05-16T15:58:54;36.58;;;20.00;;
25175;SDS011;13135;55.166;61.286;2023-05-16T16:01:39;28.10;;;18.17;;
25175;SDS011;13135;55.166;61.286;2023-05-16T16:04:24;34.33;;;18.87;;
25175;SDS011;13135;55.166;61.286;2023-05-16T16:07:09;40.22;;;19.83;;
25175;SDS011;13135;55.166;61.286;2023-05-16T16:09:55;35.17;;;19.98;;
25175;SDS011;13135;55.166;61.286;2023-05-16T16:12:40;30.85;;;18.40;;
25175;SDS011;13135;55.166;61.286;2023-05-16T16:15:24;33.70;;;20.85;;
25175;SDS011;13135;55.166;61.286;2023-05-16T16:18:09;35.60;;;19.90;;
25175;SDS011;13135;55.166;61.286;2023-05-16T16:20:54;36.38;;;20.77;;
25175;SDS011;13135;55.166;61.286;2023-05-16T16:23:41;33.72;;;19.70;;
25175;SDS011;13135;55.166;61.286;2023-05-16T16:26:27;33.25;;;19.87;;
25175;SDS011;13135;55.166;61.286;2023-05-16T16:29:14;35.75;;;19.62;;
25175;SDS011;13135;55.166;61.286;2023-05-16T16:31:59;33.67;;;19.10;;
25175;SDS011;13135;55.166;61.286;2023-05-16T16:34:46;34.15;;;19.90;;
25175;SDS011;13135;55.166;61.286;2023-05-16T16:37:31;35.28;;;19.92;;